Terminal Aerodrome Forecast
Issued by NWS Boston, MA

Home | Current Version | Previous Version | Text Only | Print | Product List | Glossary On
Versions: 1 2 3 4 5 6 7 8 9 10 11 12 13 14 15 16 17 18 19 20 21
000
FTUS41 KBOX 292327
TAFBDL
TAF
KBDL 292327Z 3000/0106 18006KT P6SM VCSH FEW050 BKN090 BKN200
     FM300600 20005KT P6SM BKN090
     FM300800 14004KT P6SM BKN130
     FM300900 VRB03KT P6SM SCT150
     FM302000 19004KT P6SM BKN060
     FM010000 19008KT P6SM BKN150=

USA.gov is the U.S. government's official web portal to all federal, state and local government web resources and services.